createdAt,value
2023-01-30T00:01:58.632Z,7.40
2023-01-30T00:04:26.595Z,7.40
2023-01-30T00:06:55.899Z,7.82
2023-01-30T00:09:23.807Z,6.47
2023-01-30T00:11:51.725Z,8.00
2023-01-30T00:14:19.909Z,7.03
2023-01-30T00:16:47.930Z,7.18
2023-01-30T00:19:15.863Z,6.90
2023-01-30T00:21:43.775Z,7.45
2023-01-30T00:24:13.344Z,8.13
2023-01-30T00:26:41.338Z,8.02
2023-01-30T00:29:10.638Z,7.10
2023-01-30T00:31:38.534Z,7.88
2023-01-30T00:34:06.468Z,7.90
2023-01-30T00:36:34.380Z,7.93
2023-01-30T00:39:02.240Z,7.75
2023-01-30T00:41:51.552Z,8.85
2023-01-30T00:44:36.976Z,8.18
2023-01-30T00:47:08.970Z,7.88
2023-01-30T00:49:37.524Z,7.45
2023-01-30T00:52:06.231Z,8.02
2023-01-30T00:54:34.257Z,8.30
2023-01-30T00:57:03.499Z,8.48
2023-01-30T00:59:32.475Z,8.45
2023-01-30T01:02:00.560Z,8.10
2023-01-30T01:04:28.723Z,8.73
2023-01-30T01:06:56.741Z,8.20
2023-01-30T01:09:24.721Z,8.93
2023-01-30T01:11:53.830Z,8.43
2023-01-30T01:14:23.056Z,8.32
2023-01-30T01:16:51.109Z,8.68
2023-01-30T01:19:19.078Z,8.85
2023-01-30T01:21:47.304Z,8.80
2023-01-30T01:24:16.888Z,8.40
2023-01-30T01:26:45.859Z,7.60
2023-01-30T01:29:15.155Z,7.93
2023-01-30T01:31:45.691Z,9.13
2023-01-30T01:34:13.723Z,8.63
2023-01-30T01:36:54.373Z,8.73
2023-01-30T01:39:23.484Z,9.20
2023-01-30T01:41:51.077Z,8.40
2023-01-30T01:44:19.217Z,9.00
2023-01-30T01:46:52.272Z,10.00
2023-01-30T01:51:56.464Z,9.13
2023-01-30T01:54:30.686Z,9.52
2023-01-30T01:57:04.339Z,9.40
2023-01-30T01:59:35.946Z,9.43
2023-01-30T02:02:10.332Z,9.27
2023-01-30T02:04:59.241Z,9.35
2023-01-30T02:07:28.701Z,10.48
2023-01-30T02:09:56.828Z,9.73
2023-01-30T02:12:25.823Z,9.10
2023-01-30T02:14:55.809Z,9.50
2023-01-30T02:17:25.886Z,9.75
2023-01-30T02:19:58.967Z,10.18
2023-01-30T02:23:03.271Z,9.70
2023-01-30T02:26:00.800Z,9.95
2023-01-30T02:28:49.673Z,10.77
2023-01-30T02:31:36.941Z,10.30
2023-01-30T02:34:16.803Z,10.18
2023-01-30T02:36:56.194Z,10.73
2023-01-30T02:39:38.638Z,9.95
2023-01-30T02:42:15.746Z,10.68
2023-01-30T02:44:51.910Z,10.32
2023-01-30T02:47:30.551Z,10.80
2023-01-30T02:50:03.419Z,11.05
2023-01-30T02:52:34.009Z,11.43
2023-01-30T02:55:03.026Z,11.43
2023-01-30T02:57:30.893Z,11.90
2023-01-30T03:00:06.003Z,12.05
2023-01-30T03:02:52.452Z,11.00
2023-01-30T03:05:37.955Z,11.95
2023-01-30T03:08:18.258Z,11.63
2023-01-30T03:10:55.870Z,12.32
2023-01-30T03:13:35.437Z,11.23
2023-01-30T03:16:11.366Z,11.13
2023-01-30T03:18:43.120Z,10.75
2023-01-30T03:21:12.784Z,11.68
2023-01-30T03:23:40.725Z,10.68
2023-01-30T03:26:15.427Z,11.65
2023-01-30T03:28:47.486Z,10.98
2023-01-30T03:31:15.962Z,10.45
2023-01-30T03:33:46.058Z,10.05
2023-01-30T03:36:14.467Z,11.00
2023-01-30T03:38:42.841Z,10.57
2023-01-30T03:41:11.778Z,10.95
2023-01-30T03:43:40.555Z,10.20
2023-01-30T03:46:08.513Z,9.48
2023-01-30T03:48:36.488Z,10.55
2023-01-30T03:51:06.319Z,10.95
2023-01-30T03:53:34.680Z,10.57
2023-01-30T03:56:02.669Z,11.13
2023-01-30T03:58:33.392Z,11.88
2023-01-30T04:01:13.819Z,11.85
2023-01-30T04:03:43.228Z,10.43
2023-01-30T04:06:12.559Z,10.77
2023-01-30T04:08:40.809Z,11.43
2023-01-30T04:11:10.821Z,11.38
2023-01-30T04:13:40.493Z,10.82
2023-01-30T04:16:17.491Z,10.70
2023-01-30T04:19:04.291Z,10.30
2023-01-30T04:21:35.715Z,10.52
2023-01-30T04:24:04.053Z,10.43
2023-01-30T04:26:31.969Z,10.40
2023-01-30T04:28:59.916Z,10.02
2023-01-30T04:31:29.887Z,10.45
2023-01-30T04:34:14.051Z,10.85
2023-01-30T04:36:43.401Z,10.23
2023-01-30T04:39:13.068Z,8.98
2023-01-30T04:41:41.934Z,9.77
2023-01-30T04:44:11.938Z,8.70
2023-01-30T04:46:39.822Z,9.98
2023-01-30T04:49:07.877Z,10.43
2023-01-30T04:51:35.873Z,10.18
2023-01-30T04:54:06.627Z,10.05
2023-01-30T04:56:34.860Z,9.65
2023-01-30T04:59:03.229Z,10.30
2023-01-30T05:01:39.047Z,10.65
2023-01-30T05:04:09.095Z,10.23
2023-01-30T05:06:37.700Z,10.52
2023-01-30T05:09:07.360Z,9.27
2023-01-30T05:11:35.633Z,9.63
2023-01-30T05:14:03.842Z,10.73
2023-01-30T05:16:32.343Z,9.93
2023-01-30T05:19:00.330Z,10.13
2023-01-30T05:21:37.504Z,11.13
2023-01-30T05:24:07.965Z,11.00
2023-01-30T05:26:35.917Z,10.65
2023-01-30T05:29:03.817Z,10.98
2023-01-30T05:31:31.694Z,10.90
2023-01-30T05:33:59.595Z,11.10
2023-01-30T05:36:27.499Z,12.18
2023-01-30T05:38:55.519Z,10.15
2023-01-30T05:41:24.733Z,10.38
2023-01-30T05:43:52.787Z,10.75
2023-01-30T05:46:21.090Z,10.65
2023-01-30T05:48:49.283Z,10.60
2023-01-30T05:51:19.661Z,11.40
2023-01-30T05:53:48.071Z,10.80
2023-01-30T05:56:16.470Z,11.73
2023-01-30T05:58:51.809Z,11.45
2023-01-30T06:01:19.950Z,10.88
2023-01-30T06:03:47.920Z,11.30
2023-01-30T06:06:15.950Z,11.05
2023-01-30T06:08:44.161Z,10.10
2023-01-30T06:11:14.941Z,11.10
2023-01-30T06:13:43.104Z,12.05
2023-01-30T06:16:14.630Z,11.10
2023-01-30T06:18:43.072Z,10.93
2023-01-30T06:21:11.323Z,11.30
2023-01-30T06:23:39.721Z,11.32
2023-01-30T06:26:09.196Z,11.45
2023-01-30T06:28:38.181Z,9.95
2023-01-30T06:31:07.884Z,11.13
2023-01-30T06:33:37.389Z,11.07
2023-01-30T06:36:05.857Z,10.45
2023-01-30T06:38:33.764Z,10.13
2023-01-30T06:41:01.700Z,10.93
2023-01-30T06:43:29.615Z,11.35
2023-01-30T06:45:59.849Z,10.88
2023-01-30T06:48:27.959Z,11.73
2023-01-30T06:50:57.521Z,10.60
2023-01-30T06:53:30.378Z,11.13
2023-01-30T06:55:59.120Z,10.15
2023-01-30T06:58:27.497Z,9.07
2023-01-30T07:00:55.445Z,9.88
2023-01-30T07:03:23.612Z,9.00
2023-01-30T07:05:51.525Z,8.60
2023-01-30T07:08:22.579Z,8.60
2023-01-30T07:10:51.893Z,8.70
2023-01-30T07:13:19.779Z,8.55
2023-01-30T07:15:47.796Z,7.95
2023-01-30T07:18:15.651Z,8.32
2023-01-30T07:20:47.214Z,8.55
2023-01-30T07:23:15.205Z,7.85
2023-01-30T07:25:44.618Z,8.30
2023-01-30T07:28:12.496Z,6.88
2023-01-30T07:30:40.482Z,7.20
2023-01-30T07:33:08.576Z,7.60
2023-01-30T07:35:37.955Z,7.55
2023-01-30T07:38:06.314Z,6.72
2023-01-30T07:40:34.430Z,5.95
2023-01-30T07:43:06.080Z,6.13
2023-01-30T07:45:38.233Z,6.65
2023-01-30T07:48:16.888Z,5.28
2023-01-30T07:50:45.354Z,5.68
2023-01-30T07:53:15.543Z,5.25
2023-01-30T07:55:44.005Z,5.47
2023-01-30T07:58:15.299Z,5.20
2023-01-30T08:00:43.197Z,5.10
2023-01-30T08:03:14.006Z,5.22
2023-01-30T08:05:41.999Z,4.75
2023-01-30T08:08:10.116Z,4.88
2023-01-30T08:10:38.061Z,5.60
2023-01-30T08:13:06.067Z,5.30
2023-01-30T08:15:35.340Z,5.30
2023-01-30T08:18:03.232Z,5.90
2023-01-30T08:20:31.171Z,4.57
2023-01-30T08:23:00.122Z,5.40
2023-01-30T08:25:28.345Z,4.30
2023-01-30T08:27:56.700Z,4.43
2023-01-30T08:30:24.836Z,4.60
2023-01-30T08:32:54.122Z,4.70
2023-01-30T08:35:22.170Z,4.45
2023-01-30T08:37:50.071Z,4.93
2023-01-30T08:40:18.443Z,3.95
2023-01-30T08:42:46.914Z,3.95
2023-01-30T08:45:15.432Z,3.85
2023-01-30T08:47:43.548Z,4.05
2023-01-30T08:50:13.169Z,3.70
2023-01-30T08:52:41.101Z,3.47
2023-01-30T08:55:10.430Z,3.33
2023-01-30T08:57:38.480Z,3.90
2023-01-30T09:00:07.589Z,3.90
2023-01-30T09:02:35.586Z,3.80
2023-01-30T09:05:03.507Z,3.22
2023-01-30T09:07:32.867Z,3.33
2023-01-30T09:10:00.920Z,2.90
2023-01-30T09:12:28.821Z,3.20
2023-01-30T09:14:58.606Z,2.67
2023-01-30T09:17:26.642Z,2.80
2023-01-30T09:19:54.676Z,2.70
2023-01-30T09:22:22.605Z,2.60
2023-01-30T09:24:51.961Z,2.35
2023-01-30T09:27:19.915Z,2.67
2023-01-30T09:29:47.816Z,2.60
2023-01-30T09:32:15.700Z,2.33
2023-01-30T09:34:43.671Z,2.53
2023-01-30T09:37:11.594Z,3.65
2023-01-30T09:39:39.486Z,2.40
2023-01-30T09:42:34.493Z,2.40
2023-01-30T09:45:33.835Z,2.15
2023-01-30T09:48:18.243Z,2.42
2023-01-30T09:51:03.167Z,1.90
2023-01-30T09:53:38.060Z,1.90
2023-01-30T09:56:06.896Z,2.35
2023-01-30T09:58:50.113Z,1.90
2023-01-30T10:01:27.446Z,2.05
2023-01-30T10:04:12.191Z,1.70
2023-01-30T10:06:52.625Z,1.75
2023-01-30T10:09:33.017Z,1.85
2023-01-30T10:12:16.250Z,2.05
2023-01-30T10:15:04.823Z,1.92
2023-01-30T10:17:53.838Z,1.67
2023-01-30T10:20:33.063Z,1.60
2023-01-30T10:23:15.230Z,1.45
2023-01-30T10:25:47.452Z,1.90
2023-01-30T10:28:23.720Z,1.60
2023-01-30T10:33:25.896Z,1.65
2023-01-30T10:36:04.677Z,2.35
2023-01-30T10:38:40.964Z,2.00
2023-01-30T10:41:20.142Z,1.90
2023-01-30T10:43:55.812Z,1.73
2023-01-30T10:46:40.864Z,1.92
2023-01-30T10:49:16.980Z,2.50
2023-01-30T10:51:54.892Z,2.10
2023-01-30T10:54:27.890Z,2.38
2023-01-30T10:57:03.199Z,2.08
2023-01-30T10:59:43.234Z,1.77
2023-01-30T11:02:24.416Z,2.53
2023-01-30T11:04:59.341Z,1.75
2023-01-30T11:07:29.440Z,1.83
2023-01-30T11:09:59.316Z,1.67
2023-01-30T11:12:27.390Z,2.53
2023-01-30T11:14:58.675Z,1.70
2023-01-30T11:17:34.743Z,2.28
2023-01-30T11:20:16.510Z,2.55
2023-01-30T11:22:49.926Z,2.55
2023-01-30T11:25:20.986Z,2.75
2023-01-30T11:27:55.026Z,2.20
2023-01-30T11:30:27.769Z,2.55
2023-01-30T11:33:12.906Z,2.50
2023-01-30T11:35:52.426Z,2.85
2023-01-30T11:38:23.995Z,2.25
2023-01-30T11:41:02.222Z,2.65
2023-01-30T11:43:30.681Z,2.20
2023-01-30T11:45:59.661Z,2.13
2023-01-30T11:48:33.485Z,2.45
2023-01-30T11:51:19.466Z,2.33
2023-01-30T11:53:49.984Z,2.47
2023-01-30T11:56:23.966Z,2.60
2023-01-30T11:58:59.047Z,2.40
2023-01-30T12:01:29.515Z,2.22
2023-01-30T12:04:00.251Z,2.15
2023-01-30T12:06:32.237Z,1.55
2023-01-30T12:09:00.802Z,1.75
2023-01-30T12:11:44.848Z,1.70
2023-01-30T12:14:38.845Z,1.80
2023-01-30T12:17:15.821Z,2.22
2023-01-30T12:20:01.307Z,1.50
2023-01-30T12:22:38.877Z,1.67
2023-01-30T12:25:15.679Z,2.53
2023-01-30T12:30:31.430Z,2.10
2023-01-30T12:36:03.213Z,2.13
2023-01-30T12:38:54.503Z,2.38
2023-01-30T12:41:34.851Z,1.98
2023-01-30T12:44:30.456Z,2.60
2023-01-30T12:47:13.004Z,2.13
2023-01-30T12:49:57.284Z,2.47
2023-01-30T12:52:42.823Z,2.42
2023-01-30T12:55:27.873Z,2.03
2023-01-30T12:58:01.715Z,1.98
2023-01-30T13:00:42.239Z,2.00
2023-01-30T13:03:23.787Z,2.10
2023-01-30T13:05:57.996Z,1.90
2023-01-30T13:08:51.208Z,2.08
2023-01-30T13:11:38.286Z,2.88
2023-01-30T13:14:14.156Z,1.98
2023-01-30T13:16:55.993Z,1.63
2023-01-30T13:19:40.317Z,2.17
2023-01-30T13:22:15.324Z,2.13
2023-01-30T13:24:54.337Z,1.88
2023-01-30T13:27:24.482Z,1.90
2023-01-30T13:29:53.859Z,1.80
2023-01-30T13:32:35.741Z,1.88
2023-01-30T13:35:07.440Z,1.45
2023-01-30T13:37:35.677Z,1.48
2023-01-30T13:40:17.516Z,2.00
2023-01-30T13:42:49.869Z,2.15
2023-01-30T13:45:22.159Z,1.95
2023-01-30T13:48:03.944Z,1.67
2023-01-30T13:50:50.107Z,2.60
2023-01-30T13:53:24.305Z,2.17
2023-01-30T13:55:59.384Z,1.98
2023-01-30T13:58:43.831Z,1.50
2023-01-30T14:01:12.537Z,1.98
2023-01-30T14:03:41.243Z,1.98
2023-01-30T14:06:15.347Z,2.10
2023-01-30T14:08:53.468Z,1.80
2023-01-30T14:11:34.437Z,1.67
2023-01-30T14:14:06.346Z,1.65
2023-01-30T14:16:45.901Z,1.17
2023-01-30T14:19:39.110Z,1.55
2023-01-30T14:22:21.350Z,1.90
2023-01-30T14:25:22.656Z,1.60
2023-01-30T14:27:53.093Z,1.77
2023-01-30T14:30:38.610Z,1.40
2023-01-30T14:33:35.389Z,1.10
2023-01-30T14:36:35.723Z,0.98
2023-01-30T14:39:49.405Z,0.70
2023-01-30T14:42:25.523Z,0.30
2023-01-30T14:45:06.699Z,0.50
2023-01-30T14:47:43.110Z,0.30
2023-01-30T14:50:20.782Z,0.32
2023-01-30T14:52:50.591Z,0.52
2023-01-30T14:55:22.235Z,0.55
2023-01-30T14:57:56.771Z,0.55
2023-01-30T15:00:32.159Z,0.63
2023-01-30T15:03:03.050Z,0.70
2023-01-30T15:05:35.073Z,0.68
2023-01-30T15:08:10.974Z,1.15
2023-01-30T15:10:55.450Z,0.82
2023-01-30T15:13:42.605Z,1.20
2023-01-30T15:16:30.568Z,1.33
2023-01-30T15:19:12.234Z,1.20
2023-01-30T15:21:56.398Z,1.10
2023-01-30T15:25:14.784Z,1.23
2023-01-30T15:27:57.572Z,1.15
2023-01-30T15:30:39.933Z,1.00
2023-01-30T15:33:29.176Z,1.10
2023-01-30T15:35:58.785Z,1.17
2023-01-30T15:38:29.859Z,1.30
2023-01-30T15:41:00.849Z,0.93
2023-01-30T15:43:54.873Z,1.00
2023-01-30T15:46:35.007Z,1.25
2023-01-30T15:49:20.727Z,1.20
2023-01-30T15:51:48.961Z,1.00
2023-01-30T15:54:19.822Z,1.70
2023-01-30T15:56:49.926Z,1.13
2023-01-30T15:59:31.698Z,1.20
2023-01-30T16:02:02.198Z,1.35
2023-01-30T16:04:32.078Z,1.30
2023-01-30T16:07:00.987Z,1.50
2023-01-30T16:09:28.964Z,1.73
2023-01-30T16:11:57.066Z,1.70
2023-01-30T16:14:25.125Z,1.17
2023-01-30T16:16:56.167Z,1.58
2023-01-30T16:19:28.696Z,1.23
2023-01-30T16:22:01.890Z,1.60
2023-01-30T16:24:32.708Z,2.10
2023-01-30T16:27:03.515Z,1.52
2023-01-30T16:29:33.652Z,1.85
2023-01-30T16:32:02.115Z,1.25
2023-01-30T16:34:33.455Z,2.22
2023-01-30T16:37:07.792Z,1.45
2023-01-30T16:39:37.423Z,1.75
2023-01-30T16:42:23.506Z,2.67
2023-01-30T16:44:51.491Z,1.85
2023-01-30T16:47:26.065Z,1.67
2023-01-30T16:49:55.830Z,1.95
2023-01-30T16:52:37.074Z,2.45
2023-01-30T16:55:09.507Z,2.10
2023-01-30T16:57:41.780Z,2.10
2023-01-30T17:00:22.539Z,1.88
2023-01-30T17:02:54.369Z,2.03
2023-01-30T17:05:25.185Z,2.15
2023-01-30T17:07:56.738Z,1.95
2023-01-30T17:10:55.944Z,2.08
2023-01-30T17:13:36.637Z,2.25
2023-01-30T17:16:34.859Z,2.25
2023-01-30T17:19:03.330Z,1.90
2023-01-30T17:21:32.704Z,1.63
2023-01-30T17:24:03.974Z,2.55
2023-01-30T17:26:32.757Z,1.90
2023-01-30T17:29:00.749Z,1.80
2023-01-30T17:31:28.677Z,1.58
2023-01-30T17:33:56.642Z,1.45
2023-01-30T17:36:27.830Z,1.65
2023-01-30T17:38:56.205Z,2.35
2023-01-30T17:41:28.513Z,2.72
2023-01-30T17:43:56.517Z,2.93
2023-01-30T17:46:28.333Z,2.17
2023-01-30T17:48:56.515Z,2.60
2023-01-30T17:51:24.435Z,2.83
2023-01-30T17:53:52.382Z,2.80
2023-01-30T17:56:24.175Z,2.05
2023-01-30T17:58:53.461Z,2.22
2023-01-30T18:01:21.519Z,1.88
2023-01-30T18:03:49.639Z,2.30
2023-01-30T18:06:17.655Z,2.42
2023-01-30T18:08:45.554Z,3.13
2023-01-30T18:11:14.892Z,2.88
2023-01-30T18:13:43.857Z,2.80
2023-01-30T18:16:18.446Z,2.92
2023-01-30T18:18:46.496Z,3.10
2023-01-30T18:21:17.524Z,2.60
2023-01-30T18:23:45.432Z,2.78
2023-01-30T18:26:14.306Z,3.17
2023-01-30T18:28:43.933Z,2.30
2023-01-30T18:31:13.475Z,2.78
2023-01-30T18:33:44.562Z,3.03
2023-01-30T18:36:14.672Z,2.22
2023-01-30T18:38:42.747Z,2.90
2023-01-30T18:41:11.894Z,3.05
2023-01-30T18:43:40.226Z,2.40
2023-01-30T18:46:09.994Z,3.63
2023-01-30T18:48:39.743Z,2.53
2023-01-30T18:51:09.844Z,3.45
2023-01-30T18:53:37.846Z,2.88
2023-01-30T18:56:08.635Z,2.80
2023-01-30T18:58:37.556Z,2.92
2023-01-30T19:01:11.210Z,2.63
2023-01-30T19:03:40.762Z,2.05
2023-01-30T19:06:11.616Z,3.50
2023-01-30T19:08:39.864Z,3.88
2023-01-30T19:11:22.525Z,3.10
2023-01-30T19:13:50.434Z,2.43
2023-01-30T19:16:19.102Z,3.05
2023-01-30T19:18:49.594Z,2.65
2023-01-30T19:21:17.757Z,3.33
2023-01-30T19:23:45.673Z,4.22
2023-01-30T19:26:13.654Z,3.90
2023-01-30T19:28:44.606Z,3.08
2023-01-30T19:31:15.311Z,2.95
2023-01-30T19:33:44.012Z,3.00
2023-01-30T19:36:15.865Z,3.72
2023-01-30T19:38:44.826Z,4.47
2023-01-30T19:41:13.835Z,3.28
2023-01-30T19:43:42.468Z,3.10
2023-01-30T19:46:11.909Z,3.60
2023-01-30T19:48:40.474Z,4.20
2023-01-30T19:51:14.974Z,3.03
2023-01-30T19:53:44.302Z,3.17
2023-01-30T19:56:13.393Z,3.47
2023-01-30T19:58:41.732Z,3.90
2023-01-30T20:01:11.755Z,3.28
2023-01-30T20:03:41.048Z,3.17
2023-01-30T20:06:12.873Z,3.83
2023-01-30T20:08:43.071Z,2.88
2023-01-30T20:11:12.056Z,3.42
2023-01-30T20:13:41.658Z,3.47
2023-01-30T20:16:12.552Z,4.15
2023-01-30T20:18:41.954Z,3.72
2023-01-30T20:21:11.361Z,3.67
2023-01-30T20:23:41.236Z,3.35
2023-01-30T20:26:12.700Z,3.30
2023-01-30T20:28:41.195Z,3.28
2023-01-30T20:31:11.709Z,3.25
2023-01-30T20:33:40.336Z,2.63
2023-01-30T20:36:10.323Z,3.00
2023-01-30T20:38:39.839Z,2.97
2023-01-30T20:41:10.140Z,3.28
2023-01-30T20:43:41.380Z,2.72
2023-01-30T20:46:10.820Z,2.97
2023-01-30T20:48:40.509Z,2.78
2023-01-30T20:51:10.260Z,3.28
2023-01-30T20:53:39.614Z,2.72
2023-01-30T20:56:10.591Z,2.83
2023-01-30T20:58:40.694Z,2.10
2023-01-30T21:01:09.790Z,2.20
2023-01-30T21:03:38.311Z,2.05
2023-01-30T21:06:06.793Z,2.20
2023-01-30T21:08:35.463Z,2.40
2023-01-30T21:11:08.977Z,2.85
2023-01-30T21:13:38.289Z,2.22
2023-01-30T21:16:11.582Z,2.75
2023-01-30T21:21:09.619Z,2.80
2023-01-30T21:23:37.938Z,3.08
2023-01-30T21:26:07.957Z,2.95
2023-01-30T21:28:36.939Z,2.40
2023-01-30T21:31:08.457Z,2.53
2023-01-30T21:33:36.699Z,2.00
2023-01-30T21:36:05.700Z,2.25
2023-01-30T21:38:50.961Z,2.10
2023-01-30T21:41:39.007Z,1.90
2023-01-30T21:44:07.649Z,1.90
2023-01-30T21:46:40.392Z,1.60
2023-01-30T21:49:08.530Z,2.88
2023-01-30T21:51:37.715Z,1.73
2023-01-30T21:54:05.853Z,2.17
2023-01-30T21:56:34.283Z,2.10
2023-01-30T21:59:04.174Z,2.80
2023-01-30T22:01:33.104Z,2.08
2023-01-30T22:04:03.432Z,1.90
2023-01-30T22:06:31.314Z,2.55
2023-01-30T22:09:01.326Z,2.00
2023-01-30T22:11:30.147Z,2.30
2023-01-30T22:13:58.802Z,2.00
2023-01-30T22:16:29.638Z,2.30
2023-01-30T22:18:59.278Z,2.33
2023-01-30T22:21:31.607Z,2.10
2023-01-30T22:23:59.767Z,3.03
2023-01-30T22:26:27.989Z,2.55
2023-01-30T22:28:56.687Z,2.30
2023-01-30T22:31:26.432Z,2.50
2023-01-30T22:33:56.495Z,2.47
2023-01-30T22:36:26.345Z,2.03
2023-01-30T22:38:56.042Z,2.67
2023-01-30T22:41:25.962Z,2.30
2023-01-30T22:43:55.788Z,3.00
2023-01-30T22:46:26.001Z,2.40
2023-01-30T22:48:54.290Z,2.45
2023-01-30T22:51:24.278Z,2.30
2023-01-30T22:53:54.074Z,2.15
2023-01-30T22:56:24.767Z,2.72
2023-01-30T22:58:53.316Z,2.38
2023-01-30T23:01:22.671Z,3.00
2023-01-30T23:03:54.653Z,3.00
2023-01-30T23:06:23.028Z,2.85
2023-01-30T23:08:51.494Z,3.65
2023-01-30T23:11:22.087Z,3.15
2023-01-30T23:13:55.445Z,2.50
2023-01-30T23:16:25.360Z,2.85
2023-01-30T23:18:55.475Z,3.08
2023-01-30T23:21:24.774Z,2.88
2023-01-30T23:23:53.975Z,2.50
2023-01-30T23:26:22.958Z,2.40
2023-01-30T23:28:52.514Z,2.38
2023-01-30T23:31:22.387Z,2.88
2023-01-30T23:33:54.605Z,2.58
2023-01-30T23:36:23.068Z,2.47
2023-01-30T23:38:51.910Z,2.60
2023-01-30T23:41:22.417Z,3.17
2023-01-30T23:43:50.918Z,2.70
2023-01-30T23:46:22.694Z,3.10
2023-01-30T23:48:53.311Z,3.60
2023-01-30T23:51:23.500Z,3.33
2023-01-30T23:53:52.440Z,3.45
2023-01-30T23:56:21.725Z,3.60
2023-01-30T23:58:50.355Z,3.17
